createdAt,value
2022-11-19T00:22:58.803Z,21.10
2022-11-19T00:25:35.246Z,21.10
2022-11-19T00:28:13.711Z,21.00
2022-11-19T00:30:49.582Z,21.20
2022-11-19T00:36:05.018Z,21.10
2022-11-19T01:02:05.286Z,21.00
2022-11-19T01:20:17.569Z,21.10
2022-11-19T01:22:53.419Z,21.30
2022-11-19T01:25:29.355Z,21.50
2022-11-19T01:28:05.616Z,21.60
2022-11-19T01:38:40.855Z,21.50
2022-11-19T02:05:05.618Z,21.40
2022-11-19T02:07:54.896Z,21.40
2022-11-19T02:10:41.226Z,21.30
2022-11-19T02:13:32.340Z,21.30
2022-11-19T02:35:54.872Z,21.70
2022-11-19T02:44:20.631Z,21.30
2022-11-19T02:52:18.492Z,21.60
2022-11-19T02:54:58.250Z,21.70
2022-11-19T03:00:35.710Z,21.40
2022-11-19T03:06:10.613Z,21.50
2022-11-19T03:11:26.774Z,21.40
2022-11-19T04:17:31.770Z,21.50
2022-11-19T04:20:07.891Z,21.50
2022-11-19T04:28:01.097Z,21.50
2022-11-19T04:38:23.859Z,21.50
2022-11-19T05:23:08.416Z,21.40
2022-11-19T05:50:40.292Z,21.20
2022-11-19T06:03:49.812Z,21.10
2022-11-19T06:11:55.144Z,21.10
2022-11-19T06:14:38.214Z,21.10
2022-11-19T06:17:13.736Z,21.00
2022-11-19T06:22:25.614Z,20.80
2022-11-19T06:25:01.138Z,20.70
2022-11-19T06:27:38.244Z,20.50
2022-11-19T06:30:18.151Z,20.50
2022-11-19T06:32:54.303Z,20.40
2022-11-19T06:35:31.158Z,20.60
2022-11-19T06:38:07.324Z,20.60
2022-11-19T06:40:43.347Z,20.50
2022-11-19T06:43:19.799Z,20.60
2022-11-19T08:17:31.847Z,20.70
2022-11-19T08:22:45.997Z,20.60
2022-11-19T10:40:25.069Z,20.50
2022-11-19T10:43:13.190Z,20.70
2022-11-19T10:59:03.270Z,20.60
2022-11-19T11:02:01.517Z,20.60
2022-11-19T12:04:27.653Z,20.60
2022-11-19T12:07:17.392Z,20.70
2022-11-19T12:10:05.221Z,20.60
2022-11-19T12:54:36.630Z,20.80
2022-11-19T12:57:30.568Z,20.80
2022-11-19T13:00:21.829Z,20.80
2022-11-19T13:03:08.981Z,20.80
2022-11-19T13:05:52.824Z,20.80
2022-11-19T13:08:37.733Z,20.70
2022-11-19T13:11:18.473Z,20.70
2022-11-19T13:13:56.982Z,20.70
2022-11-19T13:16:35.799Z,20.70
2022-11-19T13:19:28.382Z,20.80
2022-11-19T13:22:08.832Z,20.70
2022-11-19T13:24:47.451Z,20.70
2022-11-19T13:27:29.170Z,20.70
2022-11-19T13:30:09.423Z,20.70
2022-11-19T13:32:48.617Z,20.70
2022-11-19T13:35:28.304Z,20.70
2022-11-19T13:38:13.463Z,20.70
2022-11-19T13:40:54.487Z,20.60
2022-11-19T13:43:48.095Z,20.60
2022-11-19T13:46:28.527Z,20.60
2022-11-19T13:49:07.930Z,20.50
2022-11-19T13:51:45.539Z,20.60
2022-11-19T13:54:29.799Z,20.50
2022-11-19T13:57:06.040Z,20.40
2022-11-19T13:59:48.625Z,20.50
2022-11-19T14:02:51.664Z,20.40
2022-11-19T14:06:04.606Z,20.50
2022-11-19T14:08:55.557Z,20.40
2022-11-19T20:10:15.756Z,21.80
2022-11-19T20:13:07.065Z,21.90
2022-11-19T20:15:44.763Z,22.00
2022-11-19T20:18:20.342Z,22.00
2022-11-19T20:20:56.146Z,22.20
2022-11-19T20:23:31.443Z,22.20
2022-11-19T20:26:09.309Z,22.30
2022-11-19T20:28:45.649Z,22.30
2022-11-19T20:31:24.762Z,22.40
2022-11-19T20:34:02.538Z,22.50
2022-11-19T20:36:40.482Z,22.60
2022-11-19T20:39:16.648Z,22.60
2022-11-19T20:42:07.560Z,22.70
2022-11-19T20:44:43.755Z,22.80
2022-11-19T20:47:21.688Z,22.90
2022-11-19T20:49:58.086Z,23.00
2022-11-19T20:52:33.292Z,23.00
2022-11-19T20:55:09.878Z,23.10
2022-11-19T20:57:45.759Z,23.20
2022-11-19T21:00:22.884Z,23.20
2022-11-19T21:03:00.921Z,23.20
2022-11-19T21:05:36.351Z,23.20
2022-11-19T21:08:11.846Z,23.30
2022-11-19T21:10:47.715Z,23.30
2022-11-19T21:13:23.377Z,23.40
2022-11-19T21:16:00.060Z,23.50
2022-11-19T21:18:38.548Z,23.60
2022-11-19T21:21:14.184Z,23.70
2022-11-19T21:23:50.567Z,23.80
2022-11-19T21:26:27.404Z,23.90
2022-11-19T21:29:04.419Z,24.00
2022-11-19T21:31:44.455Z,24.00
2022-11-19T21:34:25.272Z,24.10
2022-11-19T21:37:01.137Z,24.10
2022-11-19T21:39:36.319Z,24.10
2022-11-19T21:42:12.383Z,24.20
2022-11-19T21:44:47.575Z,24.20
2022-11-19T21:47:23.261Z,24.30
2022-11-19T21:50:02.636Z,24.30
2022-11-19T21:52:37.929Z,24.40
2022-11-19T21:55:14.741Z,24.50
2022-11-19T21:57:50.489Z,24.50
2022-11-19T22:00:26.114Z,24.60
2022-11-19T22:03:02.132Z,24.60
2022-11-19T22:05:40.124Z,24.40
2022-11-19T22:08:16.849Z,24.50
2022-11-19T22:10:55.694Z,24.60
2022-11-19T22:13:31.704Z,24.60
2022-11-19T22:16:07.722Z,24.70
2022-11-19T22:18:44.130Z,24.80
2022-11-19T22:21:21.537Z,25.00
2022-11-19T22:23:56.830Z,25.10
2022-11-19T22:26:32.568Z,25.10
2022-11-19T22:29:09.029Z,25.20
2022-11-19T22:31:44.938Z,25.30
2022-11-19T22:34:20.528Z,25.30
2022-11-19T22:36:58.174Z,25.30
2022-11-19T22:39:34.680Z,25.30
2022-11-19T22:42:10.728Z,25.30
2022-11-19T22:44:46.566Z,25.40
2022-11-19T22:47:22.284Z,25.50
2022-11-19T22:49:58.483Z,25.50
2022-11-19T22:52:35.937Z,25.60
2022-11-19T22:55:12.456Z,25.70
2022-11-19T22:57:47.822Z,25.70
2022-11-19T23:00:43.882Z,25.70
2022-11-19T23:03:20.286Z,25.70
2022-11-19T23:05:57.699Z,25.70
2022-11-19T23:08:35.420Z,25.80
2022-11-19T23:11:12.167Z,25.80
2022-11-19T23:13:47.331Z,25.70
2022-11-19T23:16:24.554Z,25.70
2022-11-19T23:19:00.451Z,25.70
2022-11-19T23:21:36.115Z,25.70
2022-11-19T23:24:14.166Z,25.70
2022-11-19T23:26:49.364Z,25.70
2022-11-19T23:29:25.812Z,25.80
2022-11-19T23:32:01.136Z,25.80
2022-11-19T23:34:36.569Z,25.90
2022-11-19T23:37:11.891Z,25.80
2022-11-19T23:39:52.424Z,25.80
2022-11-19T23:42:28.402Z,25.80
2022-11-19T23:45:04.803Z,25.90
2022-11-19T23:47:42.892Z,25.90
2022-11-19T23:50:18.540Z,25.90
2022-11-19T23:52:57.559Z,26.00
2022-11-19T23:55:35.326Z,26.00
2022-11-19T23:58:11.309Z,26.10
